createdAt,value
2023-07-16T00:01:00.310Z,9.60
2023-07-16T00:03:28.717Z,10.82
2023-07-16T00:05:58.465Z,9.45
2023-07-16T00:08:26.888Z,10.00
2023-07-16T00:10:55.390Z,11.30
2023-07-16T00:13:23.842Z,10.60
2023-07-16T00:15:52.204Z,10.70
2023-07-16T00:18:20.520Z,11.95
2023-07-16T00:20:48.921Z,11.90
2023-07-16T00:23:18.779Z,10.80
2023-07-16T00:25:47.251Z,11.95
2023-07-16T00:28:15.688Z,11.20
2023-07-16T00:30:44.118Z,11.82
2023-07-16T00:33:12.521Z,11.27
2023-07-16T00:35:40.915Z,11.23
2023-07-16T00:38:09.400Z,11.15
2023-07-16T00:40:39.096Z,12.48
2023-07-16T00:43:07.460Z,12.18
2023-07-16T00:45:35.860Z,11.63
2023-07-16T00:48:04.543Z,11.43
2023-07-16T00:50:35.186Z,11.90
2023-07-16T00:53:04.061Z,11.70
2023-07-16T00:55:33.252Z,11.13
2023-07-16T00:58:06.665Z,12.85
2023-07-16T01:00:35.362Z,12.00
2023-07-16T01:03:04.544Z,12.85
2023-07-16T01:05:38.779Z,11.75
2023-07-16T01:08:11.687Z,13.20
2023-07-16T01:10:41.747Z,12.32
2023-07-16T01:13:11.694Z,13.80
2023-07-16T01:15:40.082Z,13.70
2023-07-16T01:18:08.471Z,12.73
2023-07-16T01:20:37.081Z,13.40
2023-07-16T01:23:48.584Z,14.27
2023-07-16T01:26:32.918Z,13.70
2023-07-16T01:29:33.214Z,13.07
2023-07-16T01:32:04.793Z,13.32
2023-07-16T01:34:35.818Z,14.23
2023-07-16T01:37:05.017Z,14.73
2023-07-16T01:39:34.899Z,13.80
2023-07-16T01:42:03.591Z,13.65
2023-07-16T01:44:33.377Z,13.30
2023-07-16T01:47:11.685Z,14.45
2023-07-16T01:49:40.404Z,13.77
2023-07-16T01:52:10.278Z,14.18
2023-07-16T01:54:39.033Z,14.68
2023-07-16T01:57:08.056Z,14.85
2023-07-16T01:59:37.869Z,14.45
2023-07-16T02:02:07.639Z,15.02
2023-07-16T02:04:36.002Z,13.95
2023-07-16T02:07:04.539Z,14.63
2023-07-16T02:09:32.998Z,15.00
2023-07-16T02:12:01.422Z,15.93
2023-07-16T02:14:30.575Z,14.15
2023-07-16T02:17:00.629Z,12.88
2023-07-16T02:19:29.163Z,14.68
2023-07-16T02:21:57.700Z,14.98
2023-07-16T02:24:26.152Z,14.07
2023-07-16T02:26:54.517Z,14.00
2023-07-16T02:29:22.941Z,15.00
2023-07-16T02:31:51.549Z,14.27
2023-07-16T02:34:22.332Z,13.98
2023-07-16T02:36:49.712Z,14.20
2023-07-16T02:39:18.088Z,14.85
2023-07-16T02:41:46.446Z,14.93
2023-07-16T02:44:14.831Z,15.40
2023-07-16T02:46:45.396Z,16.23
2023-07-16T02:49:13.829Z,15.60
2023-07-16T02:51:43.560Z,14.55
2023-07-16T02:54:11.998Z,15.07
2023-07-16T02:56:40.466Z,15.23
2023-07-16T02:59:08.925Z,15.68
2023-07-16T03:01:37.504Z,14.82
2023-07-16T03:04:06.145Z,14.13
2023-07-16T03:06:34.505Z,14.27
2023-07-16T03:09:04.568Z,15.43
2023-07-16T03:11:32.982Z,16.42
2023-07-16T03:14:01.350Z,16.08
2023-07-16T03:16:29.790Z,30.00
2023-07-16T03:18:58.246Z,21.98
2023-07-16T03:21:26.652Z,17.30
2023-07-16T03:23:54.984Z,16.10
2023-07-16T03:26:24.710Z,17.40
2023-07-16T03:28:53.094Z,15.98
2023-07-16T03:31:21.507Z,15.15
2023-07-16T03:33:49.824Z,15.63
2023-07-16T03:36:18.404Z,14.82
2023-07-16T03:38:46.977Z,15.80
2023-07-16T03:41:15.355Z,17.38
2023-07-16T03:43:45.216Z,17.73
2023-07-16T03:46:13.827Z,15.35
2023-07-16T03:48:42.487Z,15.88
2023-07-16T03:51:10.869Z,16.95
2023-07-16T03:53:39.320Z,16.35
2023-07-16T03:56:07.657Z,15.68
2023-07-16T03:58:35.984Z,16.60
2023-07-16T04:01:05.738Z,16.02
2023-07-16T04:03:34.260Z,15.13
2023-07-16T04:06:06.347Z,14.85
2023-07-16T04:08:34.897Z,15.25
2023-07-16T04:11:03.761Z,14.23
2023-07-16T04:13:32.285Z,14.02
2023-07-16T04:16:00.931Z,13.90
2023-07-16T04:18:30.826Z,14.18
2023-07-16T04:20:59.266Z,14.55
2023-07-16T04:23:27.753Z,14.27
2023-07-16T04:25:57.604Z,13.18
2023-07-16T04:28:25.988Z,13.27
2023-07-16T04:30:54.433Z,12.02
2023-07-16T04:33:22.841Z,12.35
2023-07-16T04:35:52.694Z,13.20
2023-07-16T04:38:21.154Z,13.05
2023-07-16T04:40:49.550Z,12.70
2023-07-16T04:43:17.956Z,11.68
2023-07-16T04:45:48.008Z,11.88
2023-07-16T04:48:16.626Z,11.98
2023-07-16T04:50:45.010Z,11.63
2023-07-16T04:53:14.667Z,11.27
2023-07-16T04:55:43.006Z,11.50
2023-07-16T04:58:13.296Z,11.23
2023-07-16T05:00:41.734Z,12.18
2023-07-16T05:03:10.207Z,12.02
2023-07-16T05:05:38.686Z,12.05
2023-07-16T05:08:07.165Z,11.77
2023-07-16T05:10:37.128Z,11.50
2023-07-16T05:13:05.841Z,11.07
2023-07-16T05:15:35.105Z,10.50
2023-07-16T05:18:03.854Z,11.10
2023-07-16T05:20:32.408Z,10.45
2023-07-16T05:23:00.798Z,10.65
2023-07-16T05:25:32.350Z,9.90
2023-07-16T05:28:02.503Z,10.32
2023-07-16T05:30:30.960Z,10.10
2023-07-16T05:32:59.392Z,8.98
2023-07-16T05:35:27.958Z,9.35
2023-07-16T05:37:56.370Z,9.80
2023-07-16T05:40:24.859Z,9.15
2023-07-16T05:42:53.276Z,8.93
2023-07-16T05:45:24.549Z,8.77
2023-07-16T05:47:52.998Z,10.20
2023-07-16T05:50:21.509Z,8.85
2023-07-16T05:52:49.991Z,8.32
2023-07-16T05:55:19.318Z,9.65
2023-07-16T05:57:47.894Z,8.77
2023-07-16T06:00:16.759Z,8.50
2023-07-16T06:02:46.624Z,8.90
2023-07-16T06:05:15.096Z,8.85
2023-07-16T06:07:43.466Z,9.15
2023-07-16T06:10:12.262Z,8.55
2023-07-16T06:12:40.743Z,9.32
2023-07-16T06:15:09.812Z,9.98
2023-07-16T06:17:38.285Z,10.07
2023-07-16T06:20:10.387Z,9.82
2023-07-16T06:22:39.576Z,10.75
2023-07-16T06:25:11.194Z,10.32
2023-07-16T06:27:39.612Z,11.23
2023-07-16T06:30:09.261Z,10.32
2023-07-16T06:32:37.692Z,9.70
2023-07-16T06:35:08.079Z,9.75
2023-07-16T06:37:36.451Z,8.70
2023-07-16T06:40:06.765Z,9.00
2023-07-16T06:42:35.117Z,9.45
2023-07-16T06:45:03.660Z,8.65
2023-07-16T06:47:32.080Z,8.40
2023-07-16T06:50:00.622Z,9.70
2023-07-16T06:52:31.964Z,10.05
2023-07-16T06:55:00.295Z,8.95
2023-07-16T06:57:28.681Z,8.35
2023-07-16T06:59:57.114Z,8.32
2023-07-16T07:02:25.660Z,7.32
2023-07-16T07:04:54.077Z,7.88
2023-07-16T07:07:22.438Z,7.70
2023-07-16T07:09:52.304Z,7.43
2023-07-16T07:12:20.663Z,7.85
2023-07-16T07:14:49.594Z,7.53
2023-07-16T07:17:18.297Z,6.88
2023-07-16T07:19:46.700Z,7.47
2023-07-16T07:22:15.087Z,7.25
2023-07-16T07:24:44.127Z,9.10
2023-07-16T07:27:14.137Z,7.72
2023-07-16T07:29:42.815Z,7.40
2023-07-16T07:32:11.183Z,7.68
2023-07-16T07:34:41.058Z,7.57
2023-07-16T07:37:10.194Z,7.53
2023-07-16T07:39:38.661Z,8.13
2023-07-16T07:42:08.585Z,7.28
2023-07-16T07:44:38.384Z,7.63
2023-07-16T07:47:08.604Z,8.13
2023-07-16T07:49:37.005Z,8.07
2023-07-16T07:52:06.458Z,7.65
2023-07-16T07:54:35.073Z,8.45
2023-07-16T07:57:06.324Z,8.13
2023-07-16T07:59:35.332Z,7.78
2023-07-16T08:02:05.235Z,8.13
2023-07-16T08:04:33.994Z,8.38
2023-07-16T08:07:02.391Z,7.45
2023-07-16T08:09:30.893Z,7.93
2023-07-16T08:11:59.259Z,8.70
2023-07-16T08:14:27.541Z,8.15
2023-07-16T08:16:55.896Z,8.07
2023-07-16T08:19:25.805Z,7.10
2023-07-16T08:21:54.394Z,7.97
2023-07-16T08:24:22.784Z,7.85
2023-07-16T08:26:51.406Z,7.93
2023-07-16T08:29:20.095Z,7.25
2023-07-16T08:31:48.590Z,8.57
2023-07-16T08:34:16.929Z,9.05
2023-07-16T08:36:46.728Z,8.60
2023-07-16T08:39:15.180Z,8.02
2023-07-16T08:41:44.144Z,7.00
2023-07-16T08:44:14.231Z,7.45
2023-07-16T08:46:42.896Z,8.25
2023-07-16T08:49:13.403Z,8.38
2023-07-16T08:51:43.183Z,8.63
2023-07-16T08:54:12.976Z,8.43
2023-07-16T08:56:41.439Z,8.32
2023-07-16T08:59:10.866Z,8.63
2023-07-16T09:01:39.690Z,9.43
2023-07-16T09:04:08.038Z,8.48
2023-07-16T09:06:36.457Z,8.10
2023-07-16T09:09:05.024Z,9.32
2023-07-16T09:11:35.833Z,9.75
2023-07-16T09:14:04.677Z,8.68
2023-07-16T09:16:35.791Z,8.70
2023-07-16T09:19:09.307Z,9.13
2023-07-16T09:21:39.333Z,8.40
2023-07-16T09:24:09.850Z,8.85
2023-07-16T09:26:41.197Z,9.25
2023-07-16T09:29:10.276Z,8.40
2023-07-16T09:31:38.790Z,9.18
2023-07-16T09:34:07.285Z,9.32
2023-07-16T09:36:36.703Z,9.10
2023-07-16T09:39:05.171Z,9.20
2023-07-16T09:41:33.555Z,9.30
2023-07-16T09:44:03.422Z,8.90
2023-07-16T09:46:31.804Z,9.05
2023-07-16T09:49:00.430Z,9.95
2023-07-16T09:51:33.521Z,9.25
2023-07-16T09:54:03.959Z,8.88
2023-07-16T09:56:36.819Z,8.75
2023-07-16T09:59:10.720Z,10.23
2023-07-16T10:01:41.343Z,9.60
2023-07-16T10:04:15.602Z,9.55
2023-07-16T10:06:55.482Z,8.85
2023-07-16T10:09:43.462Z,8.98
2023-07-16T10:12:16.678Z,9.02
2023-07-16T10:14:48.197Z,8.23
2023-07-16T10:17:17.661Z,8.95
2023-07-16T10:19:59.107Z,8.82
2023-07-16T10:22:38.352Z,9.55
2023-07-16T10:25:10.125Z,9.07
2023-07-16T10:27:39.284Z,10.23
2023-07-16T10:30:09.878Z,9.93
2023-07-16T10:32:38.833Z,9.82
2023-07-16T10:35:10.368Z,8.93
2023-07-16T10:37:39.505Z,9.57
2023-07-16T10:40:12.935Z,10.80
2023-07-16T10:42:48.054Z,13.55
2023-07-16T10:45:18.149Z,10.98
2023-07-16T10:47:55.112Z,8.77
2023-07-16T10:50:24.136Z,8.88
2023-07-16T10:52:56.182Z,8.82
2023-07-16T10:55:25.527Z,8.60
2023-07-16T10:57:54.793Z,9.70
2023-07-16T11:00:25.194Z,9.25
2023-07-16T11:02:55.582Z,9.35
2023-07-16T11:05:24.077Z,8.68
2023-07-16T11:07:55.317Z,8.77
2023-07-16T11:10:27.196Z,8.35
2023-07-16T11:12:55.689Z,8.75
2023-07-16T11:15:34.990Z,8.60
2023-07-16T11:18:03.694Z,9.13
2023-07-16T11:20:32.908Z,8.48
2023-07-16T11:23:02.215Z,8.13
2023-07-16T11:25:31.289Z,8.13
2023-07-16T11:27:59.665Z,8.80
2023-07-16T11:30:28.954Z,9.02
2023-07-16T11:33:01.161Z,8.10
2023-07-16T11:35:29.911Z,9.63
2023-07-16T11:37:58.261Z,10.20
2023-07-16T11:40:27.465Z,9.25
2023-07-16T11:42:55.916Z,8.10
2023-07-16T11:45:27.671Z,8.30
2023-07-16T11:47:58.064Z,7.88
2023-07-16T11:50:27.584Z,8.10
2023-07-16T11:52:56.640Z,7.50
2023-07-16T11:55:25.333Z,7.95
2023-07-16T11:57:53.999Z,11.75
2023-07-16T12:00:22.473Z,11.07
2023-07-16T12:02:53.418Z,10.07
2023-07-16T12:05:37.247Z,8.98
2023-07-16T12:08:15.342Z,8.18
2023-07-16T12:10:44.388Z,8.32
2023-07-16T12:13:12.740Z,7.82
2023-07-16T12:15:41.075Z,8.93
2023-07-16T12:18:09.520Z,8.45
2023-07-16T12:20:40.015Z,8.75
2023-07-16T12:23:08.640Z,8.40
2023-07-16T12:25:37.237Z,8.73
2023-07-16T12:28:05.876Z,8.98
2023-07-16T12:30:34.287Z,9.00
2023-07-16T12:33:05.423Z,8.15
2023-07-16T12:35:34.093Z,8.88
2023-07-16T12:38:04.017Z,8.23
2023-07-16T12:40:32.813Z,9.10
2023-07-16T12:43:01.229Z,8.60
2023-07-16T12:45:29.680Z,8.40
2023-07-16T12:47:58.830Z,8.85
2023-07-16T12:50:29.035Z,8.80
2023-07-16T12:52:57.464Z,8.50
2023-07-16T12:55:27.266Z,7.88
2023-07-16T12:57:55.911Z,8.43
2023-07-16T13:00:24.246Z,8.38
2023-07-16T13:02:52.775Z,8.65
2023-07-16T13:05:21.258Z,8.48
2023-07-16T13:07:49.733Z,8.10
2023-07-16T13:10:23.825Z,8.88
2023-07-16T13:12:54.101Z,8.43
2023-07-16T13:15:22.731Z,8.63
2023-07-16T13:17:51.201Z,7.63
2023-07-16T13:20:21.349Z,7.95
2023-07-16T13:22:50.002Z,8.68
2023-07-16T13:25:18.458Z,8.65
2023-07-16T13:27:46.811Z,8.95
2023-07-16T13:30:16.595Z,8.98
2023-07-16T13:32:45.048Z,9.38
2023-07-16T13:35:13.404Z,9.55
2023-07-16T13:37:42.723Z,8.35
2023-07-16T13:40:11.684Z,8.25
2023-07-16T13:42:40.166Z,9.95
2023-07-16T13:45:09.650Z,10.38
2023-07-16T13:47:39.428Z,10.18
2023-07-16T13:50:08.478Z,10.05
2023-07-16T13:52:37.009Z,9.88
2023-07-16T13:55:06.202Z,9.40
2023-07-16T13:57:34.632Z,9.65
2023-07-16T14:00:03.251Z,9.55
2023-07-16T14:02:31.921Z,10.90
2023-07-16T14:05:01.860Z,10.70
2023-07-16T14:07:30.263Z,10.13
2023-07-16T14:09:58.886Z,10.15
2023-07-16T14:12:27.290Z,8.20
2023-07-16T14:14:55.696Z,8.30
2023-07-16T14:17:24.714Z,9.20
2023-07-16T14:19:54.081Z,8.68
2023-07-16T14:22:27.740Z,9.05
2023-07-16T14:24:56.482Z,8.90
2023-07-16T14:27:25.067Z,8.65
2023-07-16T14:30:05.056Z,8.40
2023-07-16T14:32:35.420Z,9.52
2023-07-16T14:35:04.941Z,9.73
2023-07-16T14:37:34.823Z,11.27
2023-07-16T14:40:03.930Z,9.65
2023-07-16T14:42:32.317Z,9.18
2023-07-16T14:45:00.809Z,9.32
2023-07-16T14:47:29.890Z,11.75
2023-07-16T14:49:58.472Z,10.90
2023-07-16T14:52:26.959Z,9.90
2023-07-16T14:54:56.814Z,8.77
2023-07-16T14:57:25.304Z,8.55
2023-07-16T14:59:53.737Z,6.93
2023-07-16T15:02:22.129Z,7.82
2023-07-16T15:04:50.705Z,7.90
2023-07-16T15:07:19.177Z,8.15
2023-07-16T15:09:47.700Z,7.57
2023-07-16T15:12:17.462Z,8.23
2023-07-16T15:14:47.166Z,7.78
2023-07-16T15:17:16.208Z,7.55
2023-07-16T15:19:44.777Z,8.30
2023-07-16T15:22:13.432Z,9.20
2023-07-16T15:24:42.051Z,9.15
2023-07-16T15:27:10.474Z,8.82
2023-07-16T15:29:40.208Z,8.65
2023-07-16T15:32:09.719Z,8.73
2023-07-16T15:34:38.201Z,9.05
2023-07-16T15:37:07.730Z,8.88
2023-07-16T15:39:36.141Z,9.30
2023-07-16T15:42:04.732Z,9.43
2023-07-16T15:44:33.229Z,8.13
2023-07-16T15:47:03.121Z,11.98
2023-07-16T15:49:31.579Z,8.80
2023-07-16T15:51:59.962Z,8.90
2023-07-16T15:54:28.256Z,9.55
2023-07-16T15:56:56.751Z,9.52
2023-07-16T15:59:25.215Z,8.98
2023-07-16T16:01:54.894Z,10.00
2023-07-16T16:04:24.771Z,8.77
2023-07-16T16:06:53.161Z,8.95
2023-07-16T16:09:24.664Z,9.60
2023-07-16T16:11:54.808Z,9.00
2023-07-16T16:14:23.143Z,8.65
2023-07-16T16:17:05.969Z,8.25
2023-07-16T16:19:37.016Z,9.70
2023-07-16T16:22:05.759Z,8.38
2023-07-16T16:24:34.126Z,8.27
2023-07-16T16:27:02.551Z,8.40
2023-07-16T16:29:31.053Z,8.52
2023-07-16T16:31:59.417Z,8.75
2023-07-16T16:34:27.864Z,8.10
2023-07-16T16:36:57.606Z,8.13
2023-07-16T16:39:26.279Z,8.95
2023-07-16T16:41:54.639Z,8.63
2023-07-16T16:44:22.988Z,8.48
2023-07-16T16:46:51.552Z,9.23
2023-07-16T16:49:20.078Z,9.80
2023-07-16T16:51:48.446Z,9.43
2023-07-16T16:54:18.220Z,10.10
2023-07-16T16:56:46.784Z,12.60
2023-07-16T16:59:15.221Z,13.38
2023-07-16T17:01:44.131Z,17.27
2023-07-16T17:04:12.705Z,9.98
2023-07-16T17:06:43.145Z,8.85
2023-07-16T17:09:12.595Z,10.15
2023-07-16T17:11:42.443Z,8.45
2023-07-16T17:14:10.895Z,9.43
2023-07-16T17:16:39.417Z,10.15
2023-07-16T17:19:07.867Z,9.52
2023-07-16T17:21:38.476Z,9.32
2023-07-16T17:24:07.898Z,9.48
2023-07-16T17:26:36.431Z,9.02
2023-07-16T17:29:06.225Z,9.25
2023-07-16T17:31:34.969Z,9.52
2023-07-16T17:34:03.646Z,9.93
2023-07-16T17:36:32.699Z,9.93
2023-07-16T17:39:01.336Z,9.43
2023-07-16T17:41:29.800Z,9.88
2023-07-16T17:43:58.088Z,11.73
2023-07-16T17:46:27.928Z,13.10
2023-07-16T17:48:56.328Z,9.73
2023-07-16T17:51:27.147Z,10.23
2023-07-16T17:53:55.985Z,10.77
2023-07-16T17:56:24.446Z,10.82
2023-07-16T17:58:52.806Z,9.10
2023-07-16T18:01:21.342Z,9.38
2023-07-16T18:03:51.306Z,9.95
2023-07-16T18:06:20.224Z,10.20
2023-07-16T18:08:48.859Z,9.52
2023-07-16T18:11:17.451Z,11.15
2023-07-16T18:13:45.956Z,12.50
2023-07-16T18:16:14.458Z,14.20
2023-07-16T18:18:43.477Z,10.88
2023-07-16T18:21:26.865Z,10.00
2023-07-16T18:23:58.406Z,9.90
2023-07-16T18:26:27.047Z,10.18
2023-07-16T18:28:55.848Z,11.93
2023-07-16T18:31:24.627Z,14.82
2023-07-16T18:33:54.109Z,16.13
2023-07-16T18:36:24.521Z,15.93
2023-07-16T18:38:52.996Z,12.82
2023-07-16T18:41:21.481Z,10.88
2023-07-16T18:43:50.047Z,12.90
2023-07-16T18:46:18.676Z,11.73
2023-07-16T18:48:47.611Z,12.65
2023-07-16T18:51:16.127Z,11.52
2023-07-16T18:53:46.050Z,15.25
2023-07-16T18:56:15.186Z,14.10
2023-07-16T18:58:43.815Z,17.65
2023-07-16T19:01:12.389Z,13.68
2023-07-16T19:03:41.152Z,10.02
2023-07-16T19:06:09.683Z,10.23
2023-07-16T19:08:38.090Z,10.90
2023-07-16T19:11:07.966Z,11.48
2023-07-16T19:13:36.411Z,12.30
2023-07-16T19:16:05.756Z,11.25
2023-07-16T19:18:34.353Z,15.82
2023-07-16T19:21:02.884Z,11.30
2023-07-16T19:23:31.382Z,11.25
2023-07-16T19:26:00.094Z,11.85
2023-07-16T19:28:29.969Z,12.60
2023-07-16T19:30:58.467Z,11.55
2023-07-16T19:33:28.436Z,12.95
2023-07-16T19:36:12.960Z,14.00
2023-07-16T19:38:43.213Z,10.15
2023-07-16T19:41:14.196Z,10.35
2023-07-16T19:43:44.190Z,11.15
2023-07-16T19:46:15.107Z,9.48
2023-07-16T19:48:43.887Z,11.48
2023-07-16T19:51:12.324Z,10.70
2023-07-16T19:53:40.758Z,12.80
2023-07-16T19:56:09.185Z,15.90
2023-07-16T19:58:37.598Z,11.98
2023-07-16T20:01:07.961Z,12.07
2023-07-16T20:03:36.488Z,10.75
2023-07-16T20:06:08.776Z,9.88
2023-07-16T20:08:37.168Z,11.65
2023-07-16T20:11:05.568Z,11.95
2023-07-16T20:13:34.026Z,13.93
2023-07-16T20:16:02.395Z,17.80
2023-07-16T20:18:35.247Z,16.17
2023-07-16T20:21:07.064Z,14.40
2023-07-16T20:23:35.803Z,10.65
2023-07-16T20:26:04.253Z,12.77
2023-07-16T20:28:32.822Z,15.70
2023-07-16T20:31:01.450Z,11.88
2023-07-16T20:33:31.329Z,14.20
2023-07-16T20:35:59.831Z,15.43
2023-07-16T20:38:28.260Z,19.65
2023-07-16T20:40:57.266Z,19.73
2023-07-16T20:43:25.810Z,18.42
2023-07-16T20:45:55.260Z,27.70
2023-07-16T20:48:24.881Z,22.77
2023-07-16T20:50:54.675Z,18.27
2023-07-16T20:53:23.361Z,23.65
2023-07-16T20:55:51.809Z,24.30
2023-07-16T20:58:20.184Z,16.88
2023-07-16T21:00:49.165Z,18.17
2023-07-16T21:03:17.631Z,13.02
2023-07-16T21:05:46.093Z,11.23
2023-07-16T21:08:15.917Z,11.93
2023-07-16T21:10:44.302Z,12.20
2023-07-16T21:13:13.364Z,11.15
2023-07-16T21:15:41.930Z,13.38
2023-07-16T21:18:11.332Z,50.17
2023-07-16T21:20:40.512Z,33.50
2023-07-16T21:23:09.573Z,43.53
2023-07-16T21:25:39.461Z,22.55
2023-07-16T21:28:10.023Z,15.40
2023-07-16T21:30:39.379Z,15.55
2023-07-16T21:33:08.000Z,17.08
2023-07-16T21:35:36.638Z,14.13
2023-07-16T21:38:05.438Z,14.52
2023-07-16T21:40:35.797Z,14.90
2023-07-16T21:43:05.840Z,11.90
2023-07-16T21:45:34.351Z,12.57
2023-07-16T21:48:02.783Z,13.38
2023-07-16T21:50:31.351Z,14.63
2023-07-16T21:53:02.120Z,14.43
2023-07-16T21:55:30.970Z,13.57
2023-07-16T21:57:59.378Z,14.35
2023-07-16T22:00:29.091Z,14.20
2023-07-16T22:02:57.499Z,13.80
2023-07-16T22:05:26.011Z,13.82
2023-07-16T22:07:54.554Z,13.38
2023-07-16T22:10:23.020Z,13.15
2023-07-16T22:12:51.436Z,14.18
2023-07-16T22:15:20.028Z,12.35
2023-07-16T22:17:49.949Z,14.52
2023-07-16T22:20:18.403Z,14.35
2023-07-16T22:22:46.842Z,14.75
2023-07-16T22:25:15.882Z,15.00
2023-07-16T22:27:44.296Z,18.15
2023-07-16T22:30:13.703Z,15.30
2023-07-16T22:32:42.425Z,14.70
2023-07-16T22:35:12.515Z,15.15
2023-07-16T22:37:40.961Z,13.90
2023-07-16T22:40:10.747Z,13.40
2023-07-16T22:42:39.246Z,12.20
2023-07-16T22:45:08.473Z,13.18
2023-07-16T22:47:37.169Z,13.95
2023-07-16T22:50:07.124Z,13.98
2023-07-16T22:52:37.186Z,14.05
2023-07-16T22:55:06.251Z,14.13
2023-07-16T22:57:34.685Z,13.55
2023-07-16T23:00:03.218Z,13.85
2023-07-16T23:02:31.641Z,14.25
2023-07-16T23:05:00.059Z,12.15
2023-07-16T23:07:28.574Z,13.45
2023-07-16T23:09:58.484Z,13.50
2023-07-16T23:12:26.847Z,15.30
2023-07-16T23:14:55.232Z,12.70
2023-07-16T23:17:23.745Z,13.85
2023-07-16T23:19:52.111Z,12.60
2023-07-16T23:22:20.464Z,14.15
2023-07-16T23:24:48.841Z,12.68
2023-07-16T23:27:18.635Z,12.52
2023-07-16T23:29:47.001Z,14.88
2023-07-16T23:32:16.601Z,13.40
2023-07-16T23:34:44.979Z,13.38
2023-07-16T23:37:13.308Z,13.93
2023-07-16T23:39:41.644Z,13.23
2023-07-16T23:42:10.287Z,14.25
2023-07-16T23:44:40.052Z,13.70
2023-07-16T23:47:08.745Z,12.77
2023-07-16T23:49:37.207Z,12.65
2023-07-16T23:52:06.086Z,12.85
2023-07-16T23:54:34.536Z,13.88
2023-07-16T23:57:04.463Z,13.65
2023-07-16T23:59:33.038Z,13.70
